Time;durP1;ratioP1;P1;durP2;ratioP2;P2;SDS_P1;SDS_P2;PMS_P1;PMS_P2;Temp;Humidity;BMP_temperature;BMP_pressure;BME280_temperature;BME280_humidity;BME280_pressure;Samples;Min_cycle;Max_cycle;Signal;HPM_P1;HPM_P2
2022/12/19 00:01:26;;;;;;;13.90;8.35;;;;;;;2.92;55.83;103806.16;1753706;80;21057;-56
2022/12/19 00:03:56;;;;;;;17.30;9.60;;;;;;;2.86;55.58;103805.80;1689993;83;21162;-58
2022/12/19 00:06:23;;;;;;;14.05;9.03;;;;;;;2.83;55.74;103806.00;1689360;84;21085;-59
2022/12/19 00:08:50;;;;;;;14.40;9.00;;;;;;;2.80;56.05;103806.73;1687511;83;21027;-59
2022/12/19 00:11:21;;;;;;;12.28;8.28;;;;;;;2.80;56.04;103808.02;1669399;84;21535;-58
2022/12/19 00:13:48;;;;;;;13.83;8.85;;;;;;;2.81;55.78;103804.64;1674771;84;21038;-58
2022/12/19 00:16:18;;;;;;;13.78;8.73;;;;;;;2.83;55.77;103806.00;1633936;86;21602;-58
2022/12/19 00:18:46;;;;;;;14.55;8.28;;;;;;;2.81;55.55;103811.06;1676578;85;21035;-58
2022/12/19 00:21:19;;;;;;;14.98;9.30;;;;;;;2.79;55.54;103813.95;1679085;85;21074;-59
2022/12/19 00:23:46;;;;;;;15.13;10.10;;;;;;;2.76;55.62;103824.46;1679024;84;21581;-56
2022/12/19 00:26:16;;;;;;;14.78;9.05;;;;;;;2.74;56.41;103826.92;1679311;85;21058;-57
2022/12/19 00:28:45;;;;;;;16.15;8.95;;;;;;;2.71;56.29;103820.33;1671293;85;20999;-57
2022/12/19 00:31:15;;;;;;;13.80;9.15;;;;;;;2.68;56.05;103836.84;1671310;85;21030;-57
2022/12/19 00:33:42;;;;;;;11.83;8.18;;;;;;;2.62;55.84;103836.48;1682987;85;21046;-55
2022/12/19 00:36:22;;;;;;;12.35;8.05;;;;;;;2.60;55.56;103833.36;1683685;85;21087;-58
2022/12/19 00:38:50;;;;;;;15.83;9.10;;;;;;;2.58;55.13;103833.24;1673090;84;21054;-58
2022/12/19 00:41:23;;;;;;;14.45;9.33;;;;;;;2.52;55.38;103838.02;1676457;83;21580;-58
2022/12/19 00:43:55;;;;;;;12.53;9.18;;;;;;;2.45;55.20;103839.33;1677179;84;21113;-58
2022/12/19 00:46:23;;;;;;;13.72;9.10;;;;;;;2.37;55.44;103837.13;1669698;85;21071;-59
2022/12/19 00:48:50;;;;;;;13.05;9.13;;;;;;;2.34;55.61;103838.20;1670142;85;21051;-60
2022/12/19 00:51:20;;;;;;;14.33;9.13;;;;;;;2.34;56.08;103845.53;1669167;84;21122;-58
2022/12/19 00:53:48;;;;;;;14.10;9.23;;;;;;;2.38;56.30;103856.87;1677305;85;21510;-58
2022/12/19 00:56:21;;;;;;;15.25;9.55;;;;;;;2.40;56.52;103856.56;1681369;84;21537;-58
2022/12/19 00:58:48;;;;;;;13.40;8.80;;;;;;;2.41;56.15;103848.08;1627439;86;21054;-56
2022/12/19 01:01:26;;;;;;;14.90;8.70;;;;;;;2.41;56.25;103849.36;1607174;87;21586;-56
2022/12/19 01:03:53;;;;;;;13.95;9.10;;;;;;;2.43;56.56;103864.47;1607357;87;21602;-58
2022/12/19 01:06:20;;;;;;;14.35;9.15;;;;;;;2.39;56.20;103854.80;1619326;87;21022;-58
2022/12/19 01:08:47;;;;;;;13.78;8.88;;;;;;;2.35;56.23;103851.53;1606312;88;21705;-58
2022/12/19 01:11:14;;;;;;;12.65;8.58;;;;;;;2.32;56.07;103862.92;1606622;87;21078;-58
2022/12/19 01:13:40;;;;;;;13.18;8.18;;;;;;;2.29;56.06;103857.58;1605573;87;21105;-58
2022/12/19 01:16:11;;;;;;;11.48;7.80;;;;;;;2.25;56.03;103854.34;1640478;84;21531;-58
2022/12/19 01:18:38;;;;;;;13.58;9.20;;;;;;;2.23;55.82;103848.22;1637991;86;21011;-58
2022/12/19 01:21:07;;;;;;;12.37;8.38;;;;;;;2.19;56.35;103849.72;1644498;86;21560;-59
2022/12/19 01:23:35;;;;;;;13.48;9.08;;;;;;;2.17;56.18;103843.60;1634992;86;21089;-59
2022/12/19 01:26:01;;;;;;;15.13;9.43;;;;;;;2.17;56.49;103847.84;1653075;86;21067;-58
2022/12/19 01:28:28;;;;;;;14.40;8.45;;;;;;;2.15;56.73;103858.03;1636827;87;21605;-58
2022/12/19 01:30:57;;;;;;;13.30;8.75;;;;;;;2.18;57.23;103854.77;1652224;86;21047;-58
2022/12/19 01:33:24;;;;;;;13.72;9.18;;;;;;;2.22;57.39;103858.02;1612124;87;21550;-58
2022/12/19 01:35:51;;;;;;;14.28;9.43;;;;;;;2.24;57.00;103870.56;1637722;86;21069;-58
2022/12/19 01:38:19;;;;;;;13.03;9.23;;;;;;;2.22;56.74;103860.59;1651889;86;21100;-58
2022/12/19 01:40:55;;;;;;;13.15;8.55;;;;;;;2.22;56.72;103859.30;1629828;86;21054;-59
2022/12/19 01:43:24;;;;;;;14.53;9.23;;;;;;;2.23;57.00;103854.64;1540149;91;21082;-58
2022/12/19 01:45:57;;;;;;;12.60;8.68;;;;;;;2.25;57.34;103859.48;1590765;89;21148;-59
2022/12/19 01:48:34;;;;;;;12.73;8.83;;;;;;;2.27;57.57;103870.73;1590673;89;21079;-59
2022/12/19 01:51:04;;;;;;;12.37;8.95;;;;;;;2.28;57.43;103882.41;1590069;88;21082;-59
2022/12/19 01:53:35;;;;;;;12.40;7.80;;;;;;;2.26;57.36;103870.26;1590310;88;21582;-61
2022/12/19 01:56:04;;;;;;;14.35;9.40;;;;;;;2.26;57.39;103871.55;1654200;84;21043;-58
2022/12/19 01:58:32;;;;;;;13.80;9.45;;;;;;;2.24;57.11;103868.89;1669013;84;21617;-59
2022/12/19 02:00:58;;;;;;;12.90;8.90;;;;;;;2.23;56.94;103871.34;1656386;84;21028;-58
2022/12/19 02:03:27;;;;;;;13.45;9.18;;;;;;;2.24;56.67;103875.70;1664737;85;21098;-58
2022/12/19 02:05:54;;;;;;;15.45;9.35;;;;;;;2.20;56.56;103873.73;1658262;85;21047;-58
2022/12/19 02:08:23;;;;;;;14.30;9.00;;;;;;;2.15;56.66;103859.31;1643743;87;21518;-58
2022/12/19 02:10:50;;;;;;;14.53;9.70;;;;;;;2.08;56.77;103871.28;1677719;85;21083;-58
2022/12/19 02:13:17;;;;;;;11.68;8.65;;;;;;;2.05;57.03;103877.91;1684568;85;21106;-58
2022/12/19 02:16:09;;;;;;;15.63;10.18;;;;;;;2.01;56.96;103879.80;1651498;84;21054;-58
2022/12/19 02:18:56;;;;;;;12.78;8.88;;;;;;;2.02;57.03;103876.46;1617214;87;21204;-58
2022/12/19 02:21:53;;;;;;;14.15;9.53;;;;;;;2.03;57.20;103874.36;1582797;89;21114;-58
2022/12/19 02:24:59;;;;;;;11.55;7.90;;;;;;;2.01;56.90;103878.52;1613430;88;21084;-58
2022/12/19 02:27:43;;;;;;;13.65;9.10;;;;;;;2.00;56.58;103884.47;1613762;88;21534;-57
2022/12/19 02:30:14;;;;;;;12.20;8.93;;;;;;;1.96;56.79;103886.35;1619770;88;21094;-58
2022/12/19 02:33:00;;;;;;;14.28;10.10;;;;;;;1.93;56.87;103889.99;1614967;88;21557;-58
2022/12/19 02:35:39;;;;;;;13.95;8.85;;;;;;;1.91;57.30;103901.46;1618467;87;21564;-58
2022/12/19 02:38:28;;;;;;;14.78;9.33;;;;;;;1.89;56.90;103902.15;1592919;88;21097;-58
2022/12/19 02:41:05;;;;;;;16.77;10.53;;;;;;;1.87;57.23;103910.15;1653054;85;21063;-58
2022/12/19 07:12:16;;;;;;;11.03;8.20;;;;;;;-0.04;70.12;104182.59;1797364;79;27091;-59
2022/12/19 07:14:43;;;;;;;7.92;6.42;;;;;;;1.07;65.16;104180.13;1760422;79;21076;-58
2022/12/19 07:17:09;;;;;;;10.32;7.30;;;;;;;1.35;63.71;104173.62;1756283;81;21105;-58
2022/12/19 07:19:36;;;;;;;8.15;6.55;;;;;;;1.50;62.60;104174.69;1769192;80;21559;-58
2022/12/19 07:22:03;;;;;;;8.98;6.47;;;;;;;1.61;61.87;104178.87;1758820;81;21050;-58
2022/12/19 07:24:29;;;;;;;10.82;5.95;;;;;;;1.71;61.26;104175.66;1758312;81;21014;-58
2022/12/19 07:26:56;;;;;;;7.20;5.75;;;;;;;1.83;60.71;104175.20;1750569;81;21073;-58
2022/12/19 07:29:23;;;;;;;9.65;6.60;;;;;;;1.92;60.01;104180.56;1768874;80;21050;-58
2022/12/19 07:31:49;;;;;;;6.33;5.58;;;;;;;2.00;59.59;104186.23;1755352;80;21030;-58
2022/12/19 07:34:16;;;;;;;7.62;5.53;;;;;;;2.07;59.03;104189.69;1746968;80;21505;-58
2022/12/19 07:36:42;;;;;;;6.70;5.47;;;;;;;2.13;58.65;104192.67;1757608;80;21057;-58
2022/12/19 07:39:11;;;;;;;7.28;5.53;;;;;;;2.18;58.34;104196.45;1767551;80;21036;-58
2022/12/19 07:41:37;;;;;;;7.33;5.55;;;;;;;2.22;58.52;104190.73;1756677;80;21462;-58
2022/12/19 07:44:05;;;;;;;8.60;6.17;;;;;;;2.30;58.22;104194.70;1753194;81;21023;-60
2022/12/19 07:46:32;;;;;;;8.50;5.83;;;;;;;2.34;57.71;104200.14;1755184;81;20992;-58
2022/12/19 07:48:58;;;;;;;7.65;5.47;;;;;;;2.39;57.44;104197.47;1752779;80;21030;-58
2022/12/19 07:51:25;;;;;;;7.35;5.58;;;;;;;2.44;57.05;104197.78;1769525;80;21477;-58
2022/12/19 07:53:52;;;;;;;7.35;5.40;;;;;;;2.46;56.82;104205.20;1755700;80;21556;-58
2022/12/19 07:56:18;;;;;;;5.97;5.30;;;;;;;2.48;56.48;104206.18;1754446;81;21031;-58
2022/12/19 07:58:45;;;;;;;7.60;5.90;;;;;;;2.48;56.34;104209.66;1751581;80;21124;-58
2022/12/19 08:01:11;;;;;;;8.53;5.50;;;;;;;2.49;56.37;104215.69;1752050;81;21043;-58
2022/12/19 08:03:38;;;;;;;7.78;5.55;;;;;;;2.52;56.41;104222.30;1769964;80;21061;-57
2022/12/19 08:06:05;;;;;;;6.75;5.10;;;;;;;2.58;56.55;104214.98;1762537;80;21041;-58
2022/12/19 08:08:32;;;;;;;6.62;5.55;;;;;;;2.65;55.77;104218.47;1754056;80;21041;-58
2022/12/19 08:11:12;;;;;;;7.83;5.50;;;;;;;2.67;55.68;104216.89;1756330;80;21096;-57
2022/12/19 08:13:40;;;;;;;6.85;5.28;;;;;;;2.69;55.40;104217.88;1754247;80;21100;-58
2022/12/19 08:16:07;;;;;;;7.80;5.47;;;;;;;2.71;55.24;104215.02;1775601;80;21067;-59
2022/12/19 08:18:33;;;;;;;6.35;5.17;;;;;;;2.73;55.11;104224.10;1747141;80;21061;-58
2022/12/19 08:21:00;;;;;;;6.22;4.85;;;;;;;2.76;54.98;104223.03;1754525;80;21054;-58
2022/12/19 08:23:28;;;;;;;7.12;5.55;;;;;;;2.81;55.02;104220.34;1769595;80;21034;-58
2022/12/19 08:26:05;;;;;;;6.80;5.05;;;;;;;2.82;54.41;104214.03;1759778;80;21089;-58
2022/12/19 08:28:32;;;;;;;7.42;5.22;;;;;;;2.82;54.42;104219.18;1730481;82;21090;-58
2022/12/19 08:31:05;;;;;;;7.42;5.33;;;;;;;2.85;54.69;104222.32;1697743;82;21134;-58
2022/12/19 08:33:32;;;;;;;6.60;5.00;;;;;;;2.87;54.54;104229.35;1717788;82;21053;-58
2022/12/19 08:36:04;;;;;;;7.37;5.70;;;;;;;2.88;54.57;104227.29;1720886;82;21064;-58
2022/12/19 08:38:31;;;;;;;8.43;5.60;;;;;;;2.90;54.25;104231.23;1718620;82;21008;-57
2022/12/19 08:40:58;;;;;;;7.12;5.62;;;;;;;2.90;54.09;104233.81;1713760;82;21068;-58
2022/12/19 08:43:26;;;;;;;6.20;5.08;;;;;;;2.90;54.03;104230.85;1710401;82;21589;-58
2022/12/19 08:45:53;;;;;;;6.45;5.37;;;;;;;2.88;54.35;104228.58;1715843;82;21620;-58
2022/12/19 08:48:20;;;;;;;8.85;5.53;;;;;;;2.91;54.47;104226.18;1705674;82;21035;-58
2022/12/19 08:50:55;;;;;;;9.23;6.28;;;;;;;2.97;54.47;104226.58;1725521;82;21007;-59
2022/12/19 08:53:24;;;;;;;5.78;4.78;;;;;;;2.96;54.37;104224.81;1711286;82;21131;-58
2022/12/19 08:55:56;;;;;;;6.97;5.22;;;;;;;2.97;54.01;104229.14;1727332;82;21018;-58
2022/12/19 08:58:24;;;;;;;7.42;5.35;;;;;;;2.94;54.31;104220.35;1666121;85;21604;-58
2022/12/19 09:00:52;;;;;;;6.62;4.78;;;;;;;2.94;54.28;104221.25;1672826;85;21324;-58
2022/12/19 09:03:21;;;;;;;7.08;5.22;;;;;;;2.95;54.18;104221.73;1656085;85;21082;-58
2022/12/19 09:05:56;;;;;;;7.37;5.60;;;;;;;2.97;53.95;104225.67;1668722;83;21565;-58
2022/12/19 09:08:23;;;;;;;6.12;5.28;;;;;;;2.95;53.92;104215.30;1659403;85;21068;-57
2022/12/19 09:10:50;;;;;;;7.10;5.47;;;;;;;2.93;53.85;104213.02;1658671;85;21554;-58
2022/12/19 09:13:16;;;;;;;5.97;4.90;;;;;;;2.89;54.13;104225.20;1650124;85;21073;-58
2022/12/19 09:15:43;;;;;;;7.85;5.53;;;;;;;2.91;54.05;104223.61;1663958;85;21029;-58
2022/12/19 09:18:10;;;;;;;6.25;5.15;;;;;;;2.95;53.77;104220.44;1664397;85;21061;-58
2022/12/19 09:20:37;;;;;;;6.10;5.10;;;;;;;2.95;53.66;104227.26;1648424;85;21106;-58
2022/12/19 09:23:03;;;;;;;6.90;5.40;;;;;;;2.94;53.53;104230.25;1631145;87;21087;-58
2022/12/19 09:25:29;;;;;;;7.70;5.90;;;;;;;2.93;53.81;104226.27;1655177;86;21061;-58
2022/12/19 09:27:56;;;;;;;6.33;5.20;;;;;;;2.92;53.92;104220.27;1650027;86;21512;-58
2022/12/19 09:30:23;;;;;;;6.62;5.60;;;;;;;2.96;53.83;104215.81;1657745;85;21120;-58
2022/12/19 09:32:50;;;;;;;6.20;5.17;;;;;;;2.93;53.51;104214.31;1646709;85;21528;-58
2022/12/19 09:35:17;;;;;;;6.97;5.92;;;;;;;2.93;53.63;104216.88;1616897;87;21176;-58
2022/12/19 09:37:43;;;;;;;6.17;4.55;;;;;;;2.94;53.51;104218.68;1583810;88;21119;-58
2022/12/19 09:40:14;;;;;;;7.65;4.83;;;;;;;2.93;53.65;104222.02;1605188;87;21178;-58
2022/12/19 09:43:21;;;;;;;6.78;5.30;;;;;;;2.93;54.07;104219.45;1573676;89;21069;-58
2022/12/19 09:46:02;;;;;;;6.40;5.55;;;;;;;2.97;53.80;104208.56;1585927;88;21572;-58
2022/12/19 09:48:29;;;;;;;7.15;4.75;;;;;;;2.95;53.41;104205.01;1590879;88;21148;-58
2022/12/19 09:51:02;;;;;;;5.70;4.65;;;;;;;2.94;53.11;104199.77;1588391;89;21587;-58
2022/12/19 09:54:00;;;;;;;6.10;4.65;;;;;;;2.96;53.35;104202.95;1593689;89;21572;-58
2022/12/19 09:56:29;;;;;;;7.03;4.95;;;;;;;3.04;53.18;104202.13;1582681;90;21465;-58
2022/12/19 09:59:01;;;;;;;6.92;5.65;;;;;;;3.08;53.38;104206.68;1626297;87;21236;-58
2022/12/19 10:01:33;;;;;;;7.47;5.72;;;;;;;3.12;53.59;104202.22;1613804;87;21034;-58
2022/12/19 10:04:11;;;;;;;7.20;5.22;;;;;;;3.20;53.72;104206.16;1625707;87;21066;-58
2022/12/19 10:06:38;;;;;;;7.20;5.35;;;;;;;3.25;53.81;104204.39;1674748;85;21049;-58
2022/12/19 10:09:13;;;;;;;12.43;8.55;;;;;;;3.28;53.75;104199.42;1679172;84;21058;-58
2022/12/19 10:12:02;;;;;;;12.37;8.23;;;;;;;3.27;53.53;104207.95;1680497;84;21538;-58
2022/12/19 10:14:55;;;;;;;13.38;8.65;;;;;;;3.27;54.00;104209.23;1676671;84;21100;-58
2022/12/19 10:17:47;;;;;;;9.60;6.58;;;;;;;3.28;53.73;104207.14;1616994;88;21091;-58
2022/12/19 10:20:28;;;;;;;8.13;5.80;;;;;;;3.29;53.44;104205.47;1609189;88;21130;-58
2022/12/19 10:23:28;;;;;;;12.33;8.40;;;;;;;3.29;53.27;104203.79;1608019;88;21083;-60
2022/12/19 10:26:11;;;;;;;8.58;5.90;;;;;;;3.25;53.27;104204.39;1608308;88;21538;-58
2022/12/19 10:28:50;;;;;;;8.50;6.58;;;;;;;3.22;53.12;104198.14;1608815;87;21061;-58
2022/12/19 10:31:21;;;;;;;7.83;5.30;;;;;;;3.21;53.12;104199.81;1525966;93;21098;-58
2022/12/19 10:34:18;;;;;;;8.45;6.90;;;;;;;3.18;53.25;104191.92;1529659;92;21607;-58
2022/12/19 10:36:55;;;;;;;11.73;7.33;;;;;;;3.22;53.76;104187.84;1519147;92;21097;-58
2022/12/19 10:39:47;;;;;;;10.80;7.85;;;;;;;3.25;53.12;104183.80;1455858;95;21149;-58
2022/12/19 10:42:19;;;;;;;11.22;8.03;;;;;;;3.23;53.10;104187.07;1523524;92;21677;-58
2022/12/19 10:44:46;;;;;;;10.35;7.33;;;;;;;3.21;53.37;104189.52;1467570;96;21120;-58
2022/12/19 10:47:15;;;;;;;8.10;5.85;;;;;;;3.21;53.34;104181.80;1469931;96;21137;-59
2022/12/19 10:49:41;;;;;;;8.13;6.20;;;;;;;3.21;53.39;104187.38;1473434;96;21129;-58
2022/12/19 10:52:09;;;;;;;8.25;6.72;;;;;;;3.19;53.30;104174.38;1471849;95;21138;-58
2022/12/19 10:54:41;;;;;;;6.05;5.45;;;;;;;3.17;53.50;104174.69;1437500;97;21616;-58
2022/12/19 10:57:22;;;;;;;6.45;4.90;;;;;;;3.17;53.70;104166.97;1428631;99;21170;-59
2022/12/19 11:00:03;;;;;;;7.47;5.72;;;;;;;3.25;53.97;104174.80;1451085;97;21169;-59
2022/12/19 11:02:35;;;;;;;8.78;6.85;;;;;;;3.33;54.18;104173.08;1462089;98;21096;-59
2022/12/19 11:05:02;;;;;;;;;;;;;;;3.36;54.16;104174.14;1461562;97;21165;-58
2022/12/19 11:07:29;;;;;;;8.20;6.10;;;;;;;3.34;54.30;104176.16;1458541;97;20455;-58
2022/12/19 11:09:55;;;;;;;6.22;4.97;;;;;;;3.33;54.58;104178.22;1481291;95;21127;-58
2022/12/19 11:12:25;;;;;;;10.13;7.05;;;;;;;3.33;54.44;104179.51;1495597;95;21100;-60
2022/12/19 11:15:13;;;;;;;8.88;6.37;;;;;;;3.30;54.38;104184.06;1496355;95;21630;-58
2022/12/19 11:17:41;;;;;;;8.43;5.90;;;;;;;3.28;54.63;104176.26;1442206;98;21663;-59
2022/12/19 11:20:15;;;;;;;7.37;5.25;;;;;;;3.32;54.04;104179.03;1453001;97;21212;-58
2022/12/19 11:22:51;;;;;;;8.15;5.83;;;;;;;3.32;53.83;104185.47;1418955;100;22616;-58
2022/12/19 11:25:22;;;;;;;8.33;6.12;;;;;;;3.35;53.86;104180.49;1410157;101;21166;-58
2022/12/19 11:27:49;;;;;;;8.05;6.30;;;;;;;3.38;53.72;104176.84;1420446;100;21174;-58
2022/12/19 11:30:20;;;;;;;9.15;6.45;;;;;;;3.45;53.87;104178.97;1417011;100;21160;-58
2022/12/19 11:32:51;;;;;;;7.17;5.60;;;;;;;3.51;53.48;104174.20;1428220;100;21615;-58
2022/12/19 11:35:23;;;;;;;8.95;6.53;;;;;;;3.55;53.48;104168.44;1448183;97;21193;-59
2022/12/19 11:38:03;;;;;;;6.75;5.53;;;;;;;3.61;53.68;104172.28;1446522;98;21113;-58
2022/12/19 11:40:42;;;;;;;8.18;5.75;;;;;;;3.65;53.35;104166.52;1445712;93;21108;-58
2022/12/19 14:16:16;;;;;;;14.83;11.28;;;;;;;0.65;68.89;104223.20;1800561;78;26503;-56
2022/12/19 14:21:22;;;;;;;13.72;10.05;;;;;;;1.95;62.97;104214.55;1657062;85;21074;-58
2022/12/19 14:23:49;;;;;;;19.70;12.80;;;;;;;2.03;62.10;104209.54;1664437;85;21027;-57
2022/12/19 14:26:30;;;;;;;15.80;11.35;;;;;;;2.09;61.84;104209.95;1664465;85;21533;-56
2022/12/19 14:29:05;;;;;;;29.98;17.62;;;;;;;2.16;61.84;104217.30;1652547;85;21023;-56
2022/12/19 14:31:34;;;;;;;19.12;12.13;;;;;;;2.21;61.25;104214.62;1577099;88;21159;-56
2022/12/19 14:34:01;;;;;;;14.83;11.30;;;;;;;2.26;61.07;104220.59;1587802;88;21076;-56
2022/12/19 14:36:31;;;;;;;22.27;13.15;;;;;;;2.27;61.03;104210.80;1592881;89;21094;-57
2022/12/19 14:38:58;;;;;;;26.87;14.58;;;;;;;2.32;60.86;104220.09;1590504;88;21124;-56
2022/12/19 14:44:20;;;;;;;13.80;9.60;;;;;;;2.47;60.87;104221.12;1583874;88;21083;-56
2022/12/19 14:47:10;;;;;;;11.48;9.20;;;;;;;2.49;60.47;104230.69;1604025;88;21091;-56
2022/12/19 14:49:37;;;;;;;11.93;8.33;;;;;;;2.46;59.93;104237.32;1511473;93;21163;-56
2022/12/19 14:52:05;;;;;;;12.25;9.35;;;;;;;2.45;59.82;104243.27;1495341;93;21081;-56
2022/12/19 14:54:31;;;;;;;11.22;9.15;;;;;;;2.41;60.05;104242.15;1498857;94;21168;-56
2022/12/19 14:57:02;;;;;;;13.28;9.80;;;;;;;2.39;60.10;104251.86;1503344;94;21109;-56
2022/12/19 14:59:35;;;;;;;14.77;10.77;;;;;;;2.40;60.11;104253.63;1497209;93;21083;-56
2022/12/19 15:02:17;;;;;;;16.37;10.50;;;;;;;2.42;59.82;104249.48;1497041;94;21127;-56
2022/12/19 15:04:47;;;;;;;14.93;10.35;;;;;;;2.39;60.05;104255.30;1501111;93;21870;-58
2022/12/19 15:07:21;;;;;;;15.80;10.18;;;;;;;2.39;60.05;104255.30;1500789;94;21093;-58
2022/12/19 15:10:07;;;;;;;12.55;9.53;;;;;;;2.40;59.70;104266.47;1492619;95;21093;-58
2022/12/19 15:15:55;;;;;;;10.38;8.33;;;;;;;2.38;59.24;104271.52;1510453;94;21132;-58
2022/12/19 15:18:39;;;;;;;12.05;10.32;;;;;;;2.33;58.87;104266.84;1509035;93;21156;-58
2022/12/19 15:21:11;;;;;;;12.00;8.18;;;;;;;2.24;58.72;104255.95;1501426;94;21094;-58
2022/12/19 15:23:38;;;;;;;10.60;8.08;;;;;;;2.20;58.79;104268.10;1505912;94;21038;-58
2022/12/19 15:26:09;;;;;;;11.15;8.50;;;;;;;2.15;58.67;104275.48;1518219;90;21093;-58
2022/12/19 15:28:42;;;;;;;10.03;7.30;;;;;;;2.11;58.64;104273.88;1578338;88;21599;-58
2022/12/19 15:31:25;;;;;;;13.05;9.38;;;;;;;2.06;58.62;104275.27;1542842;91;21178;-58
2022/12/19 15:33:52;;;;;;;11.38;8.93;;;;;;;2.01;58.75;104279.18;1511112;93;21101;-58
2022/12/19 15:36:19;;;;;;;15.03;9.55;;;;;;;1.97;58.73;104284.89;1521480;92;21506;-58
2022/12/19 15:38:46;;;;;;;12.50;8.83;;;;;;;1.93;58.50;104286.37;1520965;92;21077;-58
2022/12/19 15:41:16;;;;;;;10.88;8.50;;;;;;;1.88;58.75;104284.24;1533892;90;21082;-59
2022/12/19 15:43:42;;;;;;;11.55;8.40;;;;;;;1.88;58.85;104291.95;1553752;92;21065;-58
2022/12/19 15:46:09;;;;;;;12.85;8.95;;;;;;;1.89;58.64;104293.75;1535025;91;21082;-58
2022/12/19 15:48:37;;;;;;;10.90;8.18;;;;;;;1.85;58.51;104282.38;1536824;91;21655;-58
2022/12/19 15:51:03;;;;;;;11.90;9.00;;;;;;;1.85;58.40;104291.75;1543559;92;21061;-57
2022/12/19 15:53:31;;;;;;;11.78;8.65;;;;;;;1.83;58.58;104294.22;1528129;91;21578;-58
2022/12/19 15:55:58;;;;;;;11.55;8.13;;;;;;;1.82;58.37;104294.98;1525163;91;21098;-57
2022/12/19 15:58:25;;;;;;;10.50;8.55;;;;;;;1.82;58.06;104292.80;1533904;92;21065;-58
2022/12/19 16:00:55;;;;;;;9.78;7.78;;;;;;;1.81;58.07;104288.47;1536435;91;21063;-58
2022/12/19 16:03:21;;;;;;;14.33;10.75;;;;;;;1.78;57.93;104284.39;1541080;90;21142;-57
2022/12/19 16:05:48;;;;;;;12.15;9.28;;;;;;;1.74;57.94;104280.73;1528826;92;21156;-58
2022/12/19 16:08:18;;;;;;;10.43;7.97;;;;;;;1.72;58.13;104291.67;1528880;89;21183;-58
2022/12/19 16:10:48;;;;;;;10.10;8.15;;;;;;;1.69;58.10;104298.75;1603549;88;21560;-58
2022/12/19 16:13:23;;;;;;;11.05;7.78;;;;;;;1.73;58.12;104296.03;1638903;86;21050;-58
2022/12/19 16:15:50;;;;;;;11.90;8.93;;;;;;;1.76;58.14;104301.37;1632753;86;21085;-57
2022/12/19 16:18:18;;;;;;;11.15;8.50;;;;;;;1.76;57.90;104303.93;1642294;86;21075;-58
2022/12/19 16:20:45;;;;;;;10.60;8.63;;;;;;;1.73;58.13;104305.92;1643861;86;21101;-57
2022/12/19 16:23:12;;;;;;;10.43;8.15;;;;;;;1.71;58.15;104306.17;1651557;86;21100;-58
2022/12/19 16:25:42;;;;;;;11.68;8.55;;;;;;;1.69;58.20;104306.88;1618567;87;21091;-57
2022/12/19 16:28:20;;;;;;;12.15;9.25;;;;;;;1.68;58.03;104306.36;1593336;89;21108;-58
2022/12/19 16:30:49;;;;;;;18.27;11.95;;;;;;;1.65;58.16;104298.94;1522634;92;21123;-57
2022/12/19 16:33:20;;;;;;;16.37;12.10;;;;;;;1.65;58.50;104296.75;1519780;88;21179;-58
2022/12/19 16:35:48;;;;;;;16.77;10.63;;;;;;;1.65;58.60;104297.66;1604742;87;21054;-57
2022/12/19 16:38:15;;;;;;;15.13;10.43;;;;;;;1.62;58.83;104306.44;1628638;87;21067;-58
2022/12/19 16:40:42;;;;;;;15.68;10.28;;;;;;;1.62;58.91;104311.58;1607797;87;21079;-58
2022/12/19 16:43:17;;;;;;;14.70;11.03;;;;;;;1.61;59.22;104311.44;1602066;89;21626;-58
2022/12/19 16:45:43;;;;;;;19.67;11.45;;;;;;;1.62;59.12;104313.24;1539932;91;21138;-57
2022/12/19 16:48:21;;;;;;;16.90;11.05;;;;;;;1.61;59.09;104302.08;1532159;92;21102;-57
2022/12/19 16:50:48;;;;;;;14.28;10.45;;;;;;;1.61;58.74;104302.08;1530042;92;23212;-57
2022/12/19 16:53:15;;;;;;;13.53;10.20;;;;;;;1.57;58.35;104292.38;1523458;93;21120;-57
2022/12/19 16:55:42;;;;;;;13.32;10.13;;;;;;;1.55;58.40;104297.80;1521802;93;21198;-57
2022/12/19 16:58:15;;;;;;;12.80;9.30;;;;;;;1.54;58.26;104301.16;1495313;93;21214;-57
2022/12/19 17:00:42;;;;;;;15.38;10.15;;;;;;;1.50;58.08;104291.84;1494250;94;21094;-57
2022/12/19 17:03:35;;;;;;;14.33;9.55;;;;;;;1.47;58.01;104305.34;1472447;95;21593;-57
2022/12/19 17:06:03;;;;;;;13.53;9.75;;;;;;;1.44;58.13;104304.24;1452662;97;21105;-57
2022/12/19 17:08:31;;;;;;;14.85;10.10;;;;;;;1.43;58.31;104302.06;1476887;95;21204;-57
2022/12/19 17:10:57;;;;;;;11.10;8.43;;;;;;;1.43;58.02;104307.19;1542176;92;21075;-57
2022/12/19 17:13:24;;;;;;;14.63;9.68;;;;;;;1.43;58.01;104305.01;1533158;92;21636;-57
2022/12/19 17:15:51;;;;;;;14.55;10.60;;;;;;;1.41;58.18;104312.60;1537586;92;21158;-57
2022/12/19 17:18:32;;;;;;;14.40;10.05;;;;;;;1.39;58.08;104313.27;1539068;92;21125;-57
2022/12/19 17:20:58;;;;;;;18.15;12.05;;;;;;;1.38;58.22;104307.23;1479577;95;21126;-57
2022/12/19 17:23:27;;;;;;;17.48;10.72;;;;;;;1.38;58.21;104304.67;1480764;95;21703;-57
2022/12/19 17:25:54;;;;;;;12.37;8.98;;;;;;;1.36;58.05;104306.23;1472341;95;21066;-57
2022/12/19 17:28:21;;;;;;;14.00;9.60;;;;;;;1.35;58.13;104309.59;1478212;94;21641;-57
2022/12/19 17:30:51;;;;;;;14.83;10.23;;;;;;;1.33;58.26;104298.34;1494490;95;21150;-57
2022/12/19 17:33:18;;;;;;;16.25;10.15;;;;;;;1.35;58.27;104299.34;1479707;95;21179;-57
2022/12/19 17:35:45;;;;;;;13.50;9.38;;;;;;;1.33;58.27;104294.48;1489334;95;21173;-57
2022/12/19 17:38:13;;;;;;;14.35;9.85;;;;;;;1.32;58.44;104291.41;1482382;95;21119;-57
2022/12/19 17:40:40;;;;;;;11.30;8.98;;;;;;;1.32;58.19;104295.25;1481601;95;21110;-57
2022/12/19 17:43:07;;;;;;;13.08;8.48;;;;;;;1.31;58.23;104288.36;1524043;91;21652;-57
2022/12/19 17:45:34;;;;;;;13.55;9.38;;;;;;;1.32;58.18;104283.70;1566860;90;21066;-57
2022/12/19 17:48:04;;;;;;;14.15;8.70;;;;;;;1.32;58.25;104285.41;1558801;90;21174;-57
2022/12/19 17:50:37;;;;;;;16.82;10.43;;;;;;;1.33;58.34;104285.51;1566029;89;21094;-57
2022/12/19 17:53:04;;;;;;;15.60;11.03;;;;;;;1.34;58.18;104282.56;1555774;90;21057;-57
2022/12/19 17:55:32;;;;;;;13.98;10.00;;;;;;;1.36;58.31;104292.12;1554834;90;21117;-58
2022/12/19 17:57:59;;;;;;;13.45;9.30;;;;;;;1.41;58.45;104289.52;1639254;84;21191;-58
2022/12/19 18:00:27;;;;;;;13.75;9.25;;;;;;;1.44;58.26;104291.00;1694746;83;21069;-57
2022/12/19 18:02:54;;;;;;;12.50;9.10;;;;;;;1.44;58.26;104288.84;1682186;83;21050;-58
2022/12/19 18:05:27;;;;;;;12.30;9.45;;;;;;;1.48;58.37;104296.84;1692974;83;21614;-58
2022/12/19 18:07:54;;;;;;;15.10;9.08;;;;;;;1.49;58.28;104296.08;1681064;83;21089;-58
2022/12/19 18:10:24;;;;;;;11.85;8.58;;;;;;;1.52;58.29;104289.89;1707167;83;21641;-58
2022/12/19 18:12:51;;;;;;;13.43;9.73;;;;;;;1.54;58.27;104287.05;1707770;83;21006;-57
2022/12/19 18:15:19;;;;;;;14.60;10.72;;;;;;;1.57;58.17;104288.91;1697393;83;21052;-58
2022/12/19 18:17:46;;;;;;;15.15;10.20;;;;;;;1.60;58.38;104290.42;1706636;83;21061;-57
2022/12/19 18:20:24;;;;;;;13.95;9.70;;;;;;;1.63;58.47;104279.97;1699558;83;21591;-58
2022/12/19 18:22:52;;;;;;;15.40;10.35;;;;;;;1.72;58.50;104278.83;1701445;83;21054;-60
2022/12/19 18:25:25;;;;;;;13.35;10.25;;;;;;;1.81;58.59;104289.38;1694066;83;21038;-58
2022/12/19 18:27:52;;;;;;;15.85;10.95;;;;;;;1.88;58.34;104285.53;1620230;87;21137;-57
2022/12/19 18:30:20;;;;;;;13.65;10.18;;;;;;;1.95;58.23;104274.52;1647858;85;21053;-58
2022/12/19 18:32:57;;;;;;;14.05;10.65;;;;;;;2.01;58.06;104262.48;1608589;87;21058;-58
2022/12/19 18:35:29;;;;;;;13.83;9.98;;;;;;;2.05;58.02;104261.52;1617498;87;21059;-58
2022/12/19 18:37:58;;;;;;;16.40;11.70;;;;;;;2.09;58.17;104264.80;1604462;88;21169;-57
2022/12/19 18:40:25;;;;;;;14.28;9.93;;;;;;;2.15;58.09;104264.31;1592016;89;21056;-57
2022/12/19 18:42:52;;;;;;;16.32;11.55;;;;;;;2.22;57.97;104258.44;1582063;89;21138;-58
2022/12/19 18:45:22;;;;;;;17.15;11.68;;;;;;;2.27;57.82;104245.87;1596815;89;21077;-58
2022/12/19 18:47:53;;;;;;;19.32;11.22;;;;;;;2.25;57.96;104251.30;1628481;86;21057;-58
2022/12/19 18:50:23;;;;;;;18.23;10.68;;;;;;;2.24;58.08;104250.81;1634493;86;21017;-58
2022/12/19 18:52:49;;;;;;;14.58;10.72;;;;;;;2.28;58.11;104252.80;1629324;86;21656;-58
2022/12/19 18:55:23;;;;;;;14.35;10.65;;;;;;;2.31;58.04;104251.70;1599243;89;21089;-58